ADDS METAR Data INFO
IDs: Format: Raw Decoded Include TAF

Data at: 1846 UTC 17 Oct 2017

KSIF 171825Z AUTO 00000KT 10SM CLR 17/M01 A3033 RMK AO2 T01661009
KSIF 171805Z AUTO 07004KT 10SM CLR 17/00 A3033 RMK AO2 T01651004
KSIF 171745Z AUTO 04004KT 10SM CLR 16/01 A3035 RMK AO2 T01620008
KSIF 171725Z AUTO 00000KT 10SM CLR 16/01 A3036 RMK AO2 T01570005
KSIF 171705Z AUTO 08003KT 10SM CLR 16/02 A3036 RMK AO2 T01560015
KSIF 171645Z AUTO 07004KT 10SM CLR 15/02 A3037 RMK AO2 T01540022
KSIF 171625Z AUTO 06004KT 10SM CLR 15/02 A3038 RMK AO2 T01510018
KSIF 171605Z AUTO 13003KT 10SM CLR 15/02 A3038 RMK AO2 T01450019
KSIF 171545Z AUTO 07003KT 10SM CLR 14/02 A3039 RMK AO2 T01430021
KSIF 171525Z AUTO 03005KT 10SM CLR 14/02 A3039 RMK AO2 T01360023
KSIF 171505Z AUTO 06003KT 10SM CLR 13/04 A3039 RMK AO2 T01330037
KSIF 171445Z AUTO 00000KT 10SM CLR 13/04 A3039 RMK AO2 T01250044
KSIF 171425Z AUTO 09003KT 10SM CLR 12/05 A3039 RMK AO2 T01210047
KSIF 171405Z AUTO 03003KT 10SM CLR 11/05 A3039 RMK AO2 T01110053
KSIF 171345Z AUTO 00000KT 10SM CLR 09/06 A3039 RMK AO2 T00940057
KSIF 171325Z AUTO 00000KT 10SM CLR 07/06 A3039 RMK AO2 T00730059
KSIF 171305Z AUTO 00000KT 10SM CLR 06/05 A3038 RMK AO2 T00610049
KSIF 171245Z AUTO 00000KT 10SM CLR 04/03 A3037 RMK AO2 T00410030
KSIF 171225Z AUTO 00000KT 10SM CLR 03/02 A3036 RMK AO2 T00280015
KSIF 171205Z AUTO 00000KT 10SM CLR 01/00 A3036 RMK AO2 T00130000
KSIF 171145Z AUTO 00000KT 10SM CLR 01/00 A3035 RMK AO2 T00130000
KSIF 171125Z AUTO 00000KT 10SM CLR 01/00 A3034 RMK AO2 T00101001
KSIF 171105Z AUTO 00000KT 10SM CLR 01/00 A3033 RMK AO2 T00110000
KSIF 171045Z AUTO 00000KT 10SM CLR 01/00 A3033 RMK AO2 T00130000
KSIF 171025Z AUTO 00000KT 10SM CLR 01/00 A3032 RMK AO2 T00140000
KSIF 171005Z AUTO 00000KT 7SM CLR 02/01 A3032 RMK AO2 T00190005
KSIF 170945Z AUTO 00000KT 10SM CLR 02/01 A3031 RMK AO2 T00200005
KSIF 170925Z AUTO 00000KT 10SM CLR 02/01 A3031 RMK AO2 T00220008
KSIF 170905Z AUTO 00000KT 10SM CLR 03/01 A3030 RMK AO2 T00270012
KSIF 170845Z AUTO 00000KT 10SM CLR 03/02 A3029 RMK AO2 T00300016
KSIF 170825Z AUTO 00000KT 10SM CLR 03/02 A3029 RMK AO2 T00320018
KSIF 170805Z AUTO 00000KT 10SM CLR 03/02 A3028 RMK AO2 T00330018
KSIF 170745Z AUTO 00000KT 10SM CLR 04/02 A3028 RMK AO2 T00350020
KSIF 170725Z AUTO 00000KT 10SM CLR 03/02 A3028 RMK AO2 T00340020
KSIF 170705Z AUTO 00000KT 10SM CLR 03/02 A3028 RMK AO2 T00320017
KSIF 170645Z AUTO 00000KT 10SM CLR 04/02 A3028 RMK AO2 T00350020
KSIF 170625Z AUTO 00000KT 10SM CLR 04/02 A3028 RMK AO2 T00350020
KSIF 170605Z AUTO 00000KT 10SM CLR 04/02 A3028 RMK AO2 T00350019
KSIF 170545Z AUTO 00000KT 10SM CLR 04/02 A3028 RMK AO2 T00370021
KSIF 170525Z AUTO 00000KT 10SM CLR 04/02 A3028 RMK AO2 T00400022
KSIF 170505Z AUTO 00000KT 10SM CLR 04/03 A3028 RMK AO2 T00410025
KSIF 170445Z AUTO 00000KT 10SM CLR 05/03 A3028 RMK AO2 T00460028
KSIF 170425Z AUTO 00000KT 10SM CLR 05/03 A3028 RMK AO2 T00490029
KSIF 170405Z AUTO 00000KT 10SM CLR 05/03 A3028 RMK AO2 T00540033
KSIF 170345Z AUTO 00000KT 10SM CLR 06/03 A3028 RMK AO2 T00570032
KSIF 170325Z AUTO 00000KT 10SM CLR 06/04 A3028 RMK AO2 T00600036
KSIF 170305Z AUTO 00000KT 10SM CLR 07/04 A3028 RMK AO2 T00650035
KSIF 170245Z AUTO 00000KT 10SM CLR 07/04 A3027 RMK AO2 T00720040
KSIF 170225Z AUTO 00000KT 10SM CLR 08/04 A3026 RMK AO2 T00820037
KSIF 170205Z AUTO 34003KT 10SM CLR 09/04 A3026 RMK AO2 T00890037
KSIF 170145Z AUTO 00000KT 10SM CLR 08/04 A3025 RMK AO2 T00820042
KSIF 170125Z AUTO 00000KT 10SM CLR 09/04 A3024 RMK AO2 T00870042
KSIF 170105Z AUTO 00000KT 10SM CLR 07/05 A3023 RMK AO2 T00730047
KSIF 170045Z AUTO 00000KT 10SM CLR 07/05 A3022 RMK AO2 T00730048
KSIF 170025Z AUTO 00000KT 10SM CLR 08/05 A3021 RMK AO2 T00760047
KSIF 170005Z AUTO 00000KT 7SM CLR 08/05 A3021 RMK AO2 T00820052
KSIF 162345Z AUTO 00000KT 10SM CLR 09/05 A3020 RMK AO2 T00920054
KSIF 162325Z AUTO 00000KT 10SM CLR 10/05 A3019 RMK AO2 T01030050
KSIF 162305Z AUTO 00000KT 10SM CLR 12/04 A3018 RMK AO2 T01240042
KSIF 162245Z AUTO 33003KT 10SM CLR 14/03 A3017 RMK AO2 T01380028
KSIF 162225Z AUTO 34003KT 10SM CLR 15/03 A3016 RMK AO2 T01460025
KSIF 162205Z AUTO 34004KT 10SM CLR 15/03 A3015 RMK AO2 T01540028
KSIF 162145Z AUTO 34003KT 10SM CLR 16/02 A3014 RMK AO2 T01600023
KSIF 162125Z AUTO 35006KT 10SM CLR 17/02 A3014 RMK AO2 T01670022
KSIF 162105Z AUTO 01007G15KT 330V040 10SM SCT055 17/02 A3014 RMK AO2 T01730024
KSIF 162045Z AUTO 33005KT 290V360 10SM CLR 18/02 A3013 RMK AO2 T01750024
KSIF 162025Z AUTO 36006KT 10SM SCT050 17/04 A3014 RMK AO2 T01710042
KSIF 162005Z AUTO 36006KT 330V040 10SM SCT050 17/04 A3014 RMK AO2 T01710036
KSIF 161945Z AUTO 36004KT 10SM SCT050 18/04 A3013 RMK AO2 T01800035
KSIF 161925Z AUTO 02004KT 10SM SCT050 19/03 A3012 RMK AO2 T01850034
KSIF 161905Z AUTO 35007KT 10SM CLR 18/04 A3012 RMK AO2 T01800035
KSIF 161845Z AUTO 36005KT 10SM CLR 18/03 A3013 RMK AO2 T01760034
KSIF 161825Z AUTO 33008G14KT 300V360 10SM CLR 17/04 A3013 RMK AO2 T01690041
KSIF 161805Z AUTO 33005KT 10SM CLR 16/05 A3013 RMK AO2 T01610047
KSIF 161745Z AUTO 31008KT 290V350 10SM CLR 17/04 A3013 RMK AO2 T01730042
KSIF 161725Z AUTO 00000KT 10SM CLR 18/04 A3013 RMK AO2 T01770040
KSIF 161705Z AUTO 36004KT 10SM CLR 18/05 A3013 RMK AO2 T01780046
KSIF 161645Z AUTO 36008KT 10SM CLR 17/04 A3013 RMK AO2 T01740042
KSIF 161625Z AUTO 36005KT 10SM CLR 17/04 A3013 RMK AO2 T01710043
KSIF 161605Z AUTO 35005G15KT 10SM CLR 17/05 A3013 RMK AO2 T01650051
KSIF 161545Z AUTO 36004KT 10SM CLR 16/06 A3013 RMK AO2 T01600057
KSIF 161525Z AUTO 01004KT 10SM SCT050 15/07 A3013 RMK AO2 T01510071
KSIF 161505Z AUTO 00000KT 10SM OVC050 15/08 A3013 RMK AO2 T01460079
KSIF 161445Z AUTO 35004KT 10SM OVC050 14/08 A3013 RMK AO2 T01380080
KSIF 161425Z AUTO 36003KT 10SM OVC050 14/08 A3013 RMK AO2 T01350079
KSIF 161405Z AUTO 01003KT 10SM OVC050 13/08 A3012 RMK AO2 T01310084
KSIF 161345Z AUTO 34003KT 10SM OVC050 13/09 A3011 RMK AO2 T01260085
KSIF 161325Z AUTO 34004KT 10SM OVC048 13/09 A3010 RMK AO2 T01250088
KSIF 161305Z AUTO 35006KT 10SM OVC046 13/10 A3010 RMK AO2 T01260096
KSIF 161245Z AUTO 35006KT 7SM RA OVC046 13/10 A3010 RMK AO2 P0004 T01280099
KSIF 161225Z AUTO 33005KT 10SM RA SCT030 OVC040 13/10 A3009 RMK AO2 P0001 T01300100
KSIF 161205Z AUTO 01005KT 10SM RA OVC030 13/10 A3005 RMK AO2 T01330103
KSIF 161145Z AUTO 36007KT 10SM -RA OVC030 14/11 A3006 RMK AO2 P0009 T01360109
KSIF 161125Z AUTO 34003KT 5SM RA BKN028 OVC039 14/12 A3006 RMK AO2 P0007 T01390116
KSIF 161105Z AUTO 36006KT 5SM +RA BKN028 BKN040 OVC055 14/12 A3005 RMK AO2 P0002 T01420116
KSIF 161045Z AUTO 36003KT 10SM RA SCT030 BKN036 OVC055 15/12 A3004 RMK AO2 P0001 T01500116
KSIF 161025Z AUTO 35007KT 300V040 10SM OVC055 16/12 A3003 RMK AO2 P0001 T01560122
KSIF 161005Z AUTO 36003KT 10SM RA OVC049 16/13 A3002 RMK AO2 T01620133
KSIF 160945Z AUTO 35004KT 10SM RA OVC049 17/14 A3001 RMK AO2 P0001 T01690140
KSIF 160925Z AUTO 00000KT 10SM -RA OVC045 17/14 A3000 RMK AO2 T01730144
KSIF 160905Z AUTO 00000KT 10SM -RA SCT031 OVC041 18/15 A2998 RMK AO2 T01750148
KSIF 160845Z AUTO 36004KT 10SM -RA BKN028 OVC036 18/15 A2997 RMK AO2 P0001 T01800150
KSIF 160825Z AUTO 00000KT 10SM -RA SCT013 SCT019 OVC027 19/15 A2997 RMK AO2 T01850151
KSIF 160805Z AUTO 36004KT 5SM -RA SCT010 BKN019 OVC037 20/17 A2996 RMK AO2 T01950171
KSIF 160745Z AUTO 00000KT 7SM -RA BKN012 BKN019 OVC041 20/18 A2997 RMK AO2 T02020175
KSIF 160725Z AUTO 00000KT 10SM -RA BKN014 BKN029 OVC100 21/17 A2997 RMK AO2 T02050172
KSIF 160705Z AUTO 00000KT 10SM BKN014 BKN020 OVC100 21/17 A2996 RMK AO2 T02070171